sensor_id;sensor_type;location;lat;lon;timestamp;P1;durP1;ratioP1;P2;durP2;ratioP2
30635;SDS011;17400;52.392;9.750;2024-02-14T00:02:18;2.88;;;0.98;;
30635;SDS011;17400;52.392;9.750;2024-02-14T00:05:04;2.92;;;1.40;;
30635;SDS011;17400;52.392;9.750;2024-02-14T00:07:51;3.40;;;1.70;;
30635;SDS011;17400;52.392;9.750;2024-02-14T00:10:37;2.90;;;1.48;;
30635;SDS011;17400;52.392;9.750;2024-02-14T00:13:24;4.97;;;1.80;;
30635;SDS011;17400;52.392;9.750;2024-02-14T00:16:11;2.55;;;1.30;;
30635;SDS011;17400;52.392;9.750;2024-02-14T00:18:57;2.20;;;1.50;;
30635;SDS011;17400;52.392;9.750;2024-02-14T00:21:44;2.63;;;1.50;;
30635;SDS011;17400;52.392;9.750;2024-02-14T00:24:32;3.10;;;1.30;;
30635;SDS011;17400;52.392;9.750;2024-02-14T00:27:18;2.38;;;1.80;;
30635;SDS011;17400;52.392;9.750;2024-02-14T00:30:05;2.85;;;1.73;;
30635;SDS011;17400;52.392;9.750;2024-02-14T00:32:54;2.65;;;1.67;;
30635;SDS011;17400;52.392;9.750;2024-02-14T00:35:41;2.60;;;1.55;;
30635;SDS011;17400;52.392;9.750;2024-02-14T00:38:27;5.65;;;2.35;;
30635;SDS011;17400;52.392;9.750;2024-02-14T00:41:14;3.00;;;1.60;;
30635;SDS011;17400;52.392;9.750;2024-02-14T00:44:00;3.90;;;1.70;;
30635;SDS011;17400;52.392;9.750;2024-02-14T00:46:48;6.47;;;1.98;;
30635;SDS011;17400;52.392;9.750;2024-02-14T00:49:36;2.25;;;1.40;;
30635;SDS011;17400;52.392;9.750;2024-02-14T00:52:24;2.00;;;1.15;;
30635;SDS011;17400;52.392;9.750;2024-02-14T00:55:10;1.90;;;1.05;;
30635;SDS011;17400;52.392;9.750;2024-02-14T00:57:56;2.95;;;1.55;;
30635;SDS011;17400;52.392;9.750;2024-02-14T01:00:43;2.53;;;1.70;;
30635;SDS011;17400;52.392;9.750;2024-02-14T01:03:29;2.60;;;1.60;;
30635;SDS011;17400;52.392;9.750;2024-02-14T01:06:17;1.38;;;1.15;;
30635;SDS011;17400;52.392;9.750;2024-02-14T01:09:05;4.30;;;1.23;;
30635;SDS011;17400;52.392;9.750;2024-02-14T01:11:51;4.07;;;2.03;;
30635;SDS011;17400;52.392;9.750;2024-02-14T01:14:38;2.45;;;1.58;;
30635;SDS011;17400;52.392;9.750;2024-02-14T01:17:24;2.80;;;1.20;;
30635;SDS011;17400;52.392;9.750;2024-02-14T01:20:11;3.42;;;1.75;;
30635;SDS011;17400;52.392;9.750;2024-02-14T01:22:58;4.80;;;1.90;;
30635;SDS011;17400;52.392;9.750;2024-02-14T01:25:45;3.38;;;1.50;;
30635;SDS011;17400;52.392;9.750;2024-02-14T01:28:31;2.72;;;1.60;;
30635;SDS011;17400;52.392;9.750;2024-02-14T01:31:18;2.33;;;1.40;;
30635;SDS011;17400;52.392;9.750;2024-02-14T01:34:05;6.63;;;1.63;;
30635;SDS011;17400;52.392;9.750;2024-02-14T01:36:51;3.38;;;1.52;;
30635;SDS011;17400;52.392;9.750;2024-02-14T01:39:39;6.03;;;1.75;;
30635;SDS011;17400;52.392;9.750;2024-02-14T01:42:25;3.42;;;1.75;;
30635;SDS011;17400;52.392;9.750;2024-02-14T01:45:13;4.80;;;1.90;;
30635;SDS011;17400;52.392;9.750;2024-02-14T01:47:59;3.13;;;1.60;;
30635;SDS011;17400;52.392;9.750;2024-02-14T01:50:47;3.53;;;1.65;;
30635;SDS011;17400;52.392;9.750;2024-02-14T01:53:33;2.83;;;1.83;;
30635;SDS011;17400;52.392;9.750;2024-02-14T01:56:24;4.03;;;1.90;;
30635;SDS011;17400;52.392;9.750;2024-02-14T01:59:12;7.05;;;2.45;;
30635;SDS011;17400;52.392;9.750;2024-02-14T02:02:00;3.53;;;1.83;;
30635;SDS011;17400;52.392;9.750;2024-02-14T02:04:46;2.15;;;1.50;;
30635;SDS011;17400;52.392;9.750;2024-02-14T02:07:32;4.07;;;1.80;;
30635;SDS011;17400;52.392;9.750;2024-02-14T02:10:19;5.07;;;2.20;;
30635;SDS011;17400;52.392;9.750;2024-02-14T02:13:09;3.15;;;1.67;;
30635;SDS011;17400;52.392;9.750;2024-02-14T02:15:55;4.28;;;1.70;;
30635;SDS011;17400;52.392;9.750;2024-02-14T02:18:44;3.95;;;1.90;;
30635;SDS011;17400;52.392;9.750;2024-02-14T02:21:30;6.00;;;2.58;;
30635;SDS011;17400;52.392;9.750;2024-02-14T02:24:18;2.53;;;1.58;;
30635;SDS011;17400;52.392;9.750;2024-02-14T02:27:05;3.13;;;1.38;;
30635;SDS011;17400;52.392;9.750;2024-02-14T02:29:51;1.95;;;1.42;;
30635;SDS011;17400;52.392;9.750;2024-02-14T02:32:37;4.70;;;1.52;;
30635;SDS011;17400;52.392;9.750;2024-02-14T02:35:24;2.35;;;1.60;;
30635;SDS011;17400;52.392;9.750;2024-02-14T02:38:10;3.03;;;1.60;;
30635;SDS011;17400;52.392;9.750;2024-02-14T02:40:58;3.92;;;1.88;;
30635;SDS011;17400;52.392;9.750;2024-02-14T02:43:45;3.08;;;1.58;;
30635;SDS011;17400;52.392;9.750;2024-02-14T02:46:35;4.35;;;2.90;;
30635;SDS011;17400;52.392;9.750;2024-02-14T02:49:21;3.67;;;1.95;;
30635;SDS011;17400;52.392;9.750;2024-02-14T02:52:07;3.03;;;1.92;;
30635;SDS011;17400;52.392;9.750;2024-02-14T02:54:55;4.07;;;2.08;;
30635;SDS011;17400;52.392;9.750;2024-02-14T02:57:42;3.53;;;1.98;;
30635;SDS011;17400;52.392;9.750;2024-02-14T03:00:29;3.38;;;1.83;;
30635;SDS011;17400;52.392;9.750;2024-02-14T03:03:16;6.80;;;2.58;;
30635;SDS011;17400;52.392;9.750;2024-02-14T03:06:03;7.25;;;1.67;;
30635;SDS011;17400;52.392;9.750;2024-02-14T03:08:50;3.58;;;2.03;;
30635;SDS011;17400;52.392;9.750;2024-02-14T03:11:37;3.97;;;1.90;;
30635;SDS011;17400;52.392;9.750;2024-02-14T03:14:25;2.40;;;1.67;;
30635;SDS011;17400;52.392;9.750;2024-02-14T03:17:15;2.85;;;1.60;;
30635;SDS011;17400;52.392;9.750;2024-02-14T03:20:01;2.40;;;1.65;;
30635;SDS011;17400;52.392;9.750;2024-02-14T03:22:54;5.43;;;1.95;;
30635;SDS011;17400;52.392;9.750;2024-02-14T03:25:40;3.67;;;2.47;;
30635;SDS011;17400;52.392;9.750;2024-02-14T03:28:27;3.42;;;1.92;;
30635;SDS011;17400;52.392;9.750;2024-02-14T03:31:15;3.47;;;2.00;;
30635;SDS011;17400;52.392;9.750;2024-02-14T03:34:02;3.92;;;2.10;;
30635;SDS011;17400;52.392;9.750;2024-02-14T03:36:49;4.22;;;1.90;;
30635;SDS011;17400;52.392;9.750;2024-02-14T03:39:35;2.67;;;1.95;;
30635;SDS011;17400;52.392;9.750;2024-02-14T03:42:22;3.95;;;1.75;;
30635;SDS011;17400;52.392;9.750;2024-02-14T03:45:08;3.75;;;1.80;;
30635;SDS011;17400;52.392;9.750;2024-02-14T03:47:57;5.53;;;2.22;;
30635;SDS011;17400;52.392;9.750;2024-02-14T03:50:44;5.93;;;2.25;;
30635;SDS011;17400;52.392;9.750;2024-02-14T03:53:30;2.80;;;1.67;;
30635;SDS011;17400;52.392;9.750;2024-02-14T03:56:17;4.00;;;2.30;;
30635;SDS011;17400;52.392;9.750;2024-02-14T03:59:04;4.10;;;1.65;;
30635;SDS011;17400;52.392;9.750;2024-02-14T04:01:52;4.20;;;2.30;;
30635;SDS011;17400;52.392;9.750;2024-02-14T04:04:40;4.25;;;2.03;;
30635;SDS011;17400;52.392;9.750;2024-02-14T04:07:28;5.13;;;1.90;;
30635;SDS011;17400;52.392;9.750;2024-02-14T04:10:15;3.22;;;1.35;;
30635;SDS011;17400;52.392;9.750;2024-02-14T04:13:02;3.60;;;1.63;;
30635;SDS011;17400;52.392;9.750;2024-02-14T04:15:49;4.53;;;1.48;;
30635;SDS011;17400;52.392;9.750;2024-02-14T04:18:35;2.72;;;1.42;;
30635;SDS011;17400;52.392;9.750;2024-02-14T04:21:23;3.38;;;1.83;;
30635;SDS011;17400;52.392;9.750;2024-02-14T04:24:10;7.05;;;2.15;;
30635;SDS011;17400;52.392;9.750;2024-02-14T04:26:56;5.13;;;1.77;;
30635;SDS011;17400;52.392;9.750;2024-02-14T04:29:44;3.47;;;1.80;;
30635;SDS011;17400;52.392;9.750;2024-02-14T04:32:32;3.65;;;1.65;;
30635;SDS011;17400;52.392;9.750;2024-02-14T04:35:19;3.10;;;1.65;;
30635;SDS011;17400;52.392;9.750;2024-02-14T04:38:07;2.90;;;1.70;;
30635;SDS011;17400;52.392;9.750;2024-02-14T04:40:55;3.50;;;1.73;;
30635;SDS011;17400;52.392;9.750;2024-02-14T04:43:43;6.75;;;1.90;;
30635;SDS011;17400;52.392;9.750;2024-02-14T04:46:29;2.80;;;1.88;;
30635;SDS011;17400;52.392;9.750;2024-02-14T04:49:16;2.97;;;1.42;;
30635;SDS011;17400;52.392;9.750;2024-02-14T04:52:03;2.25;;;1.42;;
30635;SDS011;17400;52.392;9.750;2024-02-14T04:54:51;2.92;;;1.90;;
30635;SDS011;17400;52.392;9.750;2024-02-14T04:57:38;3.17;;;1.77;;
30635;SDS011;17400;52.392;9.750;2024-02-14T05:00:27;2.75;;;1.67;;
30635;SDS011;17400;52.392;9.750;2024-02-14T05:03:13;4.32;;;1.83;;
30635;SDS011;17400;52.392;9.750;2024-02-14T05:06:00;2.83;;;1.67;;
30635;SDS011;17400;52.392;9.750;2024-02-14T05:08:47;3.78;;;1.92;;
30635;SDS011;17400;52.392;9.750;2024-02-14T05:11:38;4.57;;;1.98;;
30635;SDS011;17400;52.392;9.750;2024-02-14T05:14:24;2.95;;;1.80;;
30635;SDS011;17400;52.392;9.750;2024-02-14T05:17:10;4.15;;;2.03;;
30635;SDS011;17400;52.392;9.750;2024-02-14T05:19:56;7.45;;;3.58;;
30635;SDS011;17400;52.392;9.750;2024-02-14T05:22:43;9.20;;;2.80;;
30635;SDS011;17400;52.392;9.750;2024-02-14T05:25:29;4.10;;;2.92;;
30635;SDS011;17400;52.392;9.750;2024-02-14T05:28:19;24.90;;;9.48;;
30635;SDS011;17400;52.392;9.750;2024-02-14T05:31:06;7.05;;;4.00;;
30635;SDS011;17400;52.392;9.750;2024-02-14T05:33:52;4.20;;;2.33;;
30635;SDS011;17400;52.392;9.750;2024-02-14T05:36:39;2.35;;;1.65;;
30635;SDS011;17400;52.392;9.750;2024-02-14T05:39:27;3.05;;;1.70;;
30635;SDS011;17400;52.392;9.750;2024-02-14T05:42:14;2.20;;;1.58;;
30635;SDS011;17400;52.392;9.750;2024-02-14T05:45:02;5.70;;;1.67;;
30635;SDS011;17400;52.392;9.750;2024-02-14T05:47:52;3.88;;;1.20;;
30635;SDS011;17400;52.392;9.750;2024-02-14T05:50:38;4.05;;;2.15;;
30635;SDS011;17400;52.392;9.750;2024-02-14T05:53:24;4.72;;;1.58;;
30635;SDS011;17400;52.392;9.750;2024-02-14T05:56:10;4.28;;;2.30;;
30635;SDS011;17400;52.392;9.750;2024-02-14T05:58:57;2.85;;;1.80;;
30635;SDS011;17400;52.392;9.750;2024-02-14T06:01:44;2.25;;;1.25;;
30635;SDS011;17400;52.392;9.750;2024-02-14T06:04:30;4.15;;;1.83;;
30635;SDS011;17400;52.392;9.750;2024-02-14T06:07:17;3.22;;;1.48;;
30635;SDS011;17400;52.392;9.750;2024-02-14T06:10:04;3.08;;;1.67;;
30635;SDS011;17400;52.392;9.750;2024-02-14T06:12:52;2.70;;;1.77;;
30635;SDS011;17400;52.392;9.750;2024-02-14T06:15:39;4.50;;;1.35;;
30635;SDS011;17400;52.392;9.750;2024-02-14T06:18:27;2.60;;;1.70;;
30635;SDS011;17400;52.392;9.750;2024-02-14T06:21:13;2.15;;;1.10;;
30635;SDS011;17400;52.392;9.750;2024-02-14T06:24:00;3.35;;;1.40;;
30635;SDS011;17400;52.392;9.750;2024-02-14T06:26:48;3.40;;;1.27;;
30635;SDS011;17400;52.392;9.750;2024-02-14T06:29:35;2.97;;;1.58;;
30635;SDS011;17400;52.392;9.750;2024-02-14T06:32:22;1.90;;;1.42;;
30635;SDS011;17400;52.392;9.750;2024-02-14T06:35:10;2.60;;;1.30;;
30635;SDS011;17400;52.392;9.750;2024-02-14T06:37:57;4.22;;;1.40;;
30635;SDS011;17400;52.392;9.750;2024-02-14T06:40:49;3.10;;;1.60;;
30635;SDS011;17400;52.392;9.750;2024-02-14T06:43:36;2.35;;;1.63;;
30635;SDS011;17400;52.392;9.750;2024-02-14T06:46:24;1.38;;;1.05;;
30635;SDS011;17400;52.392;9.750;2024-02-14T06:49:10;4.18;;;1.45;;
30635;SDS011;17400;52.392;9.750;2024-02-14T06:51:59;3.20;;;1.50;;
30635;SDS011;17400;52.392;9.750;2024-02-14T06:54:46;2.47;;;1.52;;
30635;SDS011;17400;52.392;9.750;2024-02-14T06:57:32;3.88;;;1.98;;
30635;SDS011;17400;52.392;9.750;2024-02-14T07:00:19;4.43;;;1.70;;
30635;SDS011;17400;52.392;9.750;2024-02-14T07:03:06;2.53;;;1.45;;
30635;SDS011;17400;52.392;9.750;2024-02-14T07:05:52;4.43;;;1.55;;
30635;SDS011;17400;52.392;9.750;2024-02-14T07:08:41;3.92;;;2.08;;
30635;SDS011;17400;52.392;9.750;2024-02-14T07:11:28;3.05;;;1.40;;
30635;SDS011;17400;52.392;9.750;2024-02-14T07:14:14;1.70;;;1.33;;
30635;SDS011;17400;52.392;9.750;2024-02-14T07:17:00;1.05;;;0.82;;
30635;SDS011;17400;52.392;9.750;2024-02-14T07:19:47;3.10;;;1.80;;
30635;SDS011;17400;52.392;9.750;2024-02-14T07:22:35;4.03;;;1.20;;
30635;SDS011;17400;52.392;9.750;2024-02-14T07:25:22;3.78;;;1.40;;
30635;SDS011;17400;52.392;9.750;2024-02-14T07:28:08;3.13;;;1.80;;
30635;SDS011;17400;52.392;9.750;2024-02-14T07:30:55;2.55;;;1.48;;
30635;SDS011;17400;52.392;9.750;2024-02-14T07:33:42;1.45;;;0.90;;
30635;SDS011;17400;52.392;9.750;2024-02-14T07:36:29;2.70;;;1.60;;
30635;SDS011;17400;52.392;9.750;2024-02-14T07:39:18;1.65;;;1.05;;
30635;SDS011;17400;52.392;9.750;2024-02-14T07:42:06;2.88;;;1.52;;
30635;SDS011;17400;52.392;9.750;2024-02-14T07:44:53;2.53;;;1.40;;
30635;SDS011;17400;52.392;9.750;2024-02-14T07:47:41;2.55;;;1.30;;
30635;SDS011;17400;52.392;9.750;2024-02-14T07:50:28;1.85;;;1.00;;
30635;SDS011;17400;52.392;9.750;2024-02-14T07:53:14;2.63;;;1.33;;
30635;SDS011;17400;52.392;9.750;2024-02-14T07:56:01;2.40;;;1.33;;
30635;SDS011;17400;52.392;9.750;2024-02-14T07:58:49;2.95;;;1.27;;
30635;SDS011;17400;52.392;9.750;2024-02-14T08:01:36;1.50;;;0.88;;
30635;SDS011;17400;52.392;9.750;2024-02-14T08:04:22;1.50;;;1.20;;
30635;SDS011;17400;52.392;9.750;2024-02-14T08:07:08;2.40;;;1.50;;
30635;SDS011;17400;52.392;9.750;2024-02-14T08:09:54;2.63;;;1.50;;
30635;SDS011;17400;52.392;9.750;2024-02-14T08:12:41;1.70;;;1.10;;
30635;SDS011;17400;52.392;9.750;2024-02-14T08:15:29;2.17;;;1.00;;
30635;SDS011;17400;52.392;9.750;2024-02-14T08:18:17;2.08;;;1.58;;
30635;SDS011;17400;52.392;9.750;2024-02-14T08:21:04;2.63;;;1.60;;
30635;SDS011;17400;52.392;9.750;2024-02-14T08:23:51;1.27;;;0.98;;
30635;SDS011;17400;52.392;9.750;2024-02-14T08:26:38;1.15;;;0.75;;
30635;SDS011;17400;52.392;9.750;2024-02-14T08:29:24;1.92;;;0.98;;
30635;SDS011;17400;52.392;9.750;2024-02-14T08:32:11;3.40;;;0.75;;
30635;SDS011;17400;52.392;9.750;2024-02-14T08:34:58;0.80;;;0.77;;
30635;SDS011;17400;52.392;9.750;2024-02-14T08:37:44;1.42;;;0.98;;
30635;SDS011;17400;52.392;9.750;2024-02-14T08:40:33;1.42;;;1.00;;
30635;SDS011;17400;52.392;9.750;2024-02-14T08:43:20;1.88;;;0.90;;
30635;SDS011;17400;52.392;9.750;2024-02-14T08:46:09;1.05;;;0.73;;
30635;SDS011;17400;52.392;9.750;2024-02-14T08:48:59;1.33;;;0.80;;
30635;SDS011;17400;52.392;9.750;2024-02-14T08:51:47;2.20;;;0.70;;
30635;SDS011;17400;52.392;9.750;2024-02-14T08:54:34;1.40;;;0.80;;
30635;SDS011;17400;52.392;9.750;2024-02-14T08:57:20;0.45;;;0.40;;
30635;SDS011;17400;52.392;9.750;2024-02-14T09:00:08;1.10;;;0.70;;
30635;SDS011;17400;52.392;9.750;2024-02-14T09:02:59;0.93;;;0.77;;
30635;SDS011;17400;52.392;9.750;2024-02-14T09:05:47;1.17;;;0.90;;
30635;SDS011;17400;52.392;9.750;2024-02-14T09:08:34;0.77;;;0.63;;
30635;SDS011;17400;52.392;9.750;2024-02-14T09:11:20;2.03;;;0.82;;
30635;SDS011;17400;52.392;9.750;2024-02-14T09:14:08;2.33;;;1.17;;
30635;SDS011;17400;52.392;9.750;2024-02-14T09:16:55;1.63;;;1.02;;
30635;SDS011;17400;52.392;9.750;2024-02-14T09:19:41;1.33;;;0.77;;
30635;SDS011;17400;52.392;9.750;2024-02-14T09:22:29;2.60;;;1.45;;
30635;SDS011;17400;52.392;9.750;2024-02-14T09:25:15;3.78;;;1.20;;
30635;SDS011;17400;52.392;9.750;2024-02-14T09:28:01;1.85;;;1.33;;
30635;SDS011;17400;52.392;9.750;2024-02-14T09:30:47;3.63;;;1.85;;
30635;SDS011;17400;52.392;9.750;2024-02-14T09:33:34;4.90;;;3.10;;
30635;SDS011;17400;52.392;9.750;2024-02-14T09:36:21;3.80;;;1.85;;
30635;SDS011;17400;52.392;9.750;2024-02-14T09:39:09;5.47;;;3.03;;
30635;SDS011;17400;52.392;9.750;2024-02-14T09:41:58;3.97;;;1.95;;
30635;SDS011;17400;52.392;9.750;2024-02-14T09:44:46;4.25;;;3.15;;
30635;SDS011;17400;52.392;9.750;2024-02-14T09:47:41;3.40;;;2.03;;
30635;SDS011;17400;52.392;9.750;2024-02-14T09:50:29;4.03;;;2.58;;
30635;SDS011;17400;52.392;9.750;2024-02-14T09:53:17;5.25;;;2.72;;
30635;SDS011;17400;52.392;9.750;2024-02-14T09:56:06;4.03;;;2.10;;
30635;SDS011;17400;52.392;9.750;2024-02-14T09:58:55;5.53;;;3.40;;
30635;SDS011;17400;52.392;9.750;2024-02-14T10:01:42;4.93;;;3.53;;
30635;SDS011;17400;52.392;9.750;2024-02-14T10:04:28;5.38;;;3.17;;
30635;SDS011;17400;52.392;9.750;2024-02-14T10:07:15;3.83;;;2.55;;
30635;SDS011;17400;52.392;9.750;2024-02-14T10:10:05;6.70;;;3.22;;
30635;SDS011;17400;52.392;9.750;2024-02-14T10:12:55;5.43;;;2.92;;
30635;SDS011;17400;52.392;9.750;2024-02-14T10:15:42;4.85;;;2.60;;
30635;SDS011;17400;52.392;9.750;2024-02-14T10:18:29;3.88;;;2.45;;
30635;SDS011;17400;52.392;9.750;2024-02-14T10:21:19;5.32;;;3.45;;
30635;SDS011;17400;52.392;9.750;2024-02-14T10:24:07;4.80;;;2.72;;
30635;SDS011;17400;52.392;9.750;2024-02-14T10:26:54;4.88;;;3.00;;
30635;SDS011;17400;52.392;9.750;2024-02-14T10:29:44;5.40;;;3.13;;
30635;SDS011;17400;52.392;9.750;2024-02-14T10:32:32;4.05;;;2.83;;
30635;SDS011;17400;52.392;9.750;2024-02-14T10:35:19;4.70;;;3.08;;
30635;SDS011;17400;52.392;9.750;2024-02-14T10:38:07;4.88;;;3.08;;
30635;SDS011;17400;52.392;9.750;2024-02-14T10:40:54;5.60;;;3.30;;
30635;SDS011;17400;52.392;9.750;2024-02-14T10:43:42;4.47;;;2.38;;
30635;SDS011;17400;52.392;9.750;2024-02-14T10:46:31;4.03;;;2.53;;
30635;SDS011;17400;52.392;9.750;2024-02-14T10:49:20;3.90;;;2.17;;
30635;SDS011;17400;52.392;9.750;2024-02-14T10:52:10;3.92;;;2.35;;
30635;SDS011;17400;52.392;9.750;2024-02-14T10:54:57;4.53;;;2.67;;
30635;SDS011;17400;52.392;9.750;2024-02-14T10:57:47;2.63;;;2.05;;
30635;SDS011;17400;52.392;9.750;2024-02-14T11:00:34;4.03;;;2.33;;
30635;SDS011;17400;52.392;9.750;2024-02-14T11:03:22;3.35;;;2.33;;
30635;SDS011;17400;52.392;9.750;2024-02-14T11:06:14;3.17;;;2.03;;
30635;SDS011;17400;52.392;9.750;2024-02-14T11:09:02;4.70;;;1.85;;
30635;SDS011;17400;52.392;9.750;2024-02-14T11:11:58;4.60;;;2.30;;
30635;SDS011;17400;52.392;9.750;2024-02-14T11:14:47;3.75;;;2.47;;
30635;SDS011;17400;52.392;9.750;2024-02-14T11:17:37;3.58;;;1.85;;
30635;SDS011;17400;52.392;9.750;2024-02-14T11:20:32;4.55;;;2.33;;
30635;SDS011;17400;52.392;9.750;2024-02-14T11:23:21;5.20;;;3.05;;
30635;SDS011;17400;52.392;9.750;2024-02-14T11:26:14;3.97;;;2.63;;
30635;SDS011;17400;52.392;9.750;2024-02-14T11:29:02;6.10;;;2.58;;
30635;SDS011;17400;52.392;9.750;2024-02-14T11:31:56;4.68;;;2.63;;
30635;SDS011;17400;52.392;9.750;2024-02-14T11:34:45;5.95;;;3.00;;
30635;SDS011;17400;52.392;9.750;2024-02-14T11:37:40;4.03;;;2.13;;
30635;SDS011;17400;52.392;9.750;2024-02-14T11:40:27;4.97;;;2.47;;
30635;SDS011;17400;52.392;9.750;2024-02-14T11:43:14;3.45;;;2.40;;
30635;SDS011;17400;52.392;9.750;2024-02-14T11:46:01;5.03;;;2.90;;
30635;SDS011;17400;52.392;9.750;2024-02-14T11:48:50;4.35;;;2.08;;
30635;SDS011;17400;52.392;9.750;2024-02-14T11:51:38;4.47;;;2.63;;
30635;SDS011;17400;52.392;9.750;2024-02-14T11:54:27;3.67;;;2.53;;
30635;SDS011;17400;52.392;9.750;2024-02-14T11:57:16;4.35;;;2.70;;
30635;SDS011;17400;52.392;9.750;2024-02-14T12:00:04;6.05;;;3.15;;
30635;SDS011;17400;52.392;9.750;2024-02-14T12:02:51;4.63;;;2.88;;
30635;SDS011;17400;52.392;9.750;2024-02-14T12:05:39;4.15;;;2.40;;
30635;SDS011;17400;52.392;9.750;2024-02-14T12:08:26;5.72;;;3.67;;
30635;SDS011;17400;52.392;9.750;2024-02-14T12:11:14;3.53;;;2.25;;
30635;SDS011;17400;52.392;9.750;2024-02-14T12:14:02;4.05;;;2.58;;
30635;SDS011;17400;52.392;9.750;2024-02-14T12:16:49;4.65;;;3.42;;
30635;SDS011;17400;52.392;9.750;2024-02-14T12:19:36;5.50;;;3.38;;
30635;SDS011;17400;52.392;9.750;2024-02-14T12:22:23;4.38;;;2.88;;
30635;SDS011;17400;52.392;9.750;2024-02-14T12:25:10;4.60;;;2.70;;
30635;SDS011;17400;52.392;9.750;2024-02-14T12:28:01;6.13;;;3.38;;
30635;SDS011;17400;52.392;9.750;2024-02-14T12:30:48;5.57;;;3.75;;
30635;SDS011;17400;52.392;9.750;2024-02-14T12:33:40;4.63;;;2.72;;
30635;SDS011;17400;52.392;9.750;2024-02-14T12:36:27;4.90;;;3.38;;
30635;SDS011;17400;52.392;9.750;2024-02-14T12:39:14;5.20;;;2.85;;
30635;SDS011;17400;52.392;9.750;2024-02-14T12:42:01;5.85;;;3.00;;
30635;SDS011;17400;52.392;9.750;2024-02-14T12:44:50;5.97;;;3.03;;
30635;SDS011;17400;52.392;9.750;2024-02-14T12:47:36;5.93;;;3.42;;
30635;SDS011;17400;52.392;9.750;2024-02-14T12:50:23;3.60;;;2.13;;
30635;SDS011;17400;52.392;9.750;2024-02-14T12:53:10;6.28;;;3.00;;
30635;SDS011;17400;52.392;9.750;2024-02-14T12:55:56;5.10;;;2.97;;
30635;SDS011;17400;52.392;9.750;2024-02-14T12:58:43;6.07;;;3.55;;
30635;SDS011;17400;52.392;9.750;2024-02-14T13:01:34;5.65;;;3.80;;
30635;SDS011;17400;52.392;9.750;2024-02-14T13:04:20;6.65;;;4.03;;
30635;SDS011;17400;52.392;9.750;2024-02-14T13:07:08;5.78;;;3.47;;
30635;SDS011;17400;52.392;9.750;2024-02-14T13:09:55;5.65;;;3.50;;
30635;SDS011;17400;52.392;9.750;2024-02-14T13:12:42;7.25;;;3.35;;
30635;SDS011;17400;52.392;9.750;2024-02-14T13:15:30;5.28;;;3.45;;
30635;SDS011;17400;52.392;9.750;2024-02-14T13:18:17;7.05;;;3.90;;
30635;SDS011;17400;52.392;9.750;2024-02-14T13:21:05;5.70;;;3.70;;
30635;SDS011;17400;52.392;9.750;2024-02-14T13:23:52;3.67;;;2.85;;
30635;SDS011;17400;52.392;9.750;2024-02-14T13:26:38;4.97;;;3.10;;
30635;SDS011;17400;52.392;9.750;2024-02-14T13:29:24;5.32;;;3.40;;
30635;SDS011;17400;52.392;9.750;2024-02-14T13:32:11;7.30;;;3.92;;
30635;SDS011;17400;52.392;9.750;2024-02-14T13:34:59;4.53;;;2.88;;
30635;SDS011;17400;52.392;9.750;2024-02-14T13:37:45;4.93;;;3.35;;
30635;SDS011;17400;52.392;9.750;2024-02-14T13:40:31;6.45;;;3.97;;
30635;SDS011;17400;52.392;9.750;2024-02-14T13:43:18;6.18;;;3.58;;
30635;SDS011;17400;52.392;9.750;2024-02-14T13:46:04;5.15;;;3.42;;
30635;SDS011;17400;52.392;9.750;2024-02-14T13:48:50;4.75;;;2.72;;
30635;SDS011;17400;52.392;9.750;2024-02-14T13:51:38;5.95;;;3.80;;
30635;SDS011;17400;52.392;9.750;2024-02-14T13:54:24;4.55;;;2.72;;
30635;SDS011;17400;52.392;9.750;2024-02-14T13:57:11;5.72;;;2.90;;
30635;SDS011;17400;52.392;9.750;2024-02-14T13:59:57;4.03;;;2.88;;
30635;SDS011;17400;52.392;9.750;2024-02-14T14:02:44;4.70;;;3.53;;
30635;SDS011;17400;52.392;9.750;2024-02-14T14:05:31;5.43;;;3.22;;
30635;SDS011;17400;52.392;9.750;2024-02-14T14:08:19;5.75;;;3.92;;
30635;SDS011;17400;52.392;9.750;2024-02-14T14:11:05;3.53;;;2.08;;
30635;SDS011;17400;52.392;9.750;2024-02-14T14:13:53;3.83;;;1.90;;
30635;SDS011;17400;52.392;9.750;2024-02-14T14:16:39;3.97;;;2.30;;
30635;SDS011;17400;52.392;9.750;2024-02-14T14:19:28;3.47;;;2.38;;
30635;SDS011;17400;52.392;9.750;2024-02-14T14:22:14;4.70;;;2.33;;
30635;SDS011;17400;52.392;9.750;2024-02-14T14:25:03;3.63;;;1.90;;
30635;SDS011;17400;52.392;9.750;2024-02-14T14:27:51;3.85;;;2.25;;
30635;SDS011;17400;52.392;9.750;2024-02-14T14:30:37;2.67;;;1.73;;
30635;SDS011;17400;52.392;9.750;2024-02-14T14:33:25;4.28;;;2.05;;
30635;SDS011;17400;52.392;9.750;2024-02-14T14:36:12;6.00;;;2.47;;
30635;SDS011;17400;52.392;9.750;2024-02-14T14:38:59;2.80;;;1.77;;
30635;SDS011;17400;52.392;9.750;2024-02-14T14:41:46;2.47;;;1.88;;
30635;SDS011;17400;52.392;9.750;2024-02-14T14:44:33;3.92;;;2.35;;
30635;SDS011;17400;52.392;9.750;2024-02-14T14:47:20;4.22;;;2.35;;
30635;SDS011;17400;52.392;9.750;2024-02-14T14:50:07;3.92;;;2.45;;
30635;SDS011;17400;52.392;9.750;2024-02-14T14:52:54;3.90;;;2.63;;
30635;SDS011;17400;52.392;9.750;2024-02-14T14:55:49;4.50;;;3.08;;
30635;SDS011;17400;52.392;9.750;2024-02-14T14:58:38;4.25;;;2.92;;
30635;SDS011;17400;52.392;9.750;2024-02-14T15:01:27;5.78;;;2.63;;
30635;SDS011;17400;52.392;9.750;2024-02-14T15:04:16;4.25;;;2.17;;
30635;SDS011;17400;52.392;9.750;2024-02-14T15:07:05;3.33;;;1.95;;
30635;SDS011;17400;52.392;9.750;2024-02-14T15:09:51;5.25;;;2.92;;
30635;SDS011;17400;52.392;9.750;2024-02-14T15:12:37;4.43;;;1.45;;
30635;SDS011;17400;52.392;9.750;2024-02-14T15:15:25;2.85;;;1.65;;
30635;SDS011;17400;52.392;9.750;2024-02-14T15:18:12;2.95;;;1.80;;
30635;SDS011;17400;52.392;9.750;2024-02-14T15:20:59;2.42;;;1.70;;
30635;SDS011;17400;52.392;9.750;2024-02-14T15:23:48;2.00;;;1.30;;
30635;SDS011;17400;52.392;9.750;2024-02-14T15:26:35;1.67;;;1.23;;
30635;SDS011;17400;52.392;9.750;2024-02-14T15:29:36;2.55;;;1.13;;
30635;SDS011;17400;52.392;9.750;2024-02-14T15:32:42;2.85;;;1.50;;
30635;SDS011;17400;52.392;9.750;2024-02-14T15:35:46;2.38;;;1.60;;
30635;SDS011;17400;52.392;9.750;2024-02-14T15:38:33;3.40;;;1.55;;
30635;SDS011;17400;52.392;9.750;2024-02-14T15:41:22;2.15;;;1.15;;
30635;SDS011;17400;52.392;9.750;2024-02-14T15:44:09;4.32;;;1.50;;
30635;SDS011;17400;52.392;9.750;2024-02-14T15:46:55;2.22;;;1.40;;
30635;SDS011;17400;52.392;9.750;2024-02-14T15:49:42;2.17;;;1.33;;
30635;SDS011;17400;52.392;9.750;2024-02-14T15:52:30;2.50;;;1.25;;
30635;SDS011;17400;52.392;9.750;2024-02-14T15:55:17;1.85;;;1.10;;
30635;SDS011;17400;52.392;9.750;2024-02-14T15:58:03;2.42;;;1.35;;
30635;SDS011;17400;52.392;9.750;2024-02-14T16:00:50;1.85;;;1.33;;
30635;SDS011;17400;52.392;9.750;2024-02-14T16:03:37;2.53;;;1.75;;
30635;SDS011;17400;52.392;9.750;2024-02-14T16:06:24;2.85;;;1.77;;
30635;SDS011;17400;52.392;9.750;2024-02-14T16:09:11;3.03;;;1.73;;
30635;SDS011;17400;52.392;9.750;2024-02-14T16:11:58;2.70;;;1.58;;
30635;SDS011;17400;52.392;9.750;2024-02-14T16:14:45;3.65;;;1.50;;
30635;SDS011;17400;52.392;9.750;2024-02-14T16:17:32;3.35;;;1.60;;
30635;SDS011;17400;52.392;9.750;2024-02-14T16:20:19;3.10;;;1.70;;
30635;SDS011;17400;52.392;9.750;2024-02-14T16:23:08;3.58;;;2.15;;
30635;SDS011;17400;52.392;9.750;2024-02-14T16:25:54;3.33;;;2.03;;
30635;SDS011;17400;52.392;9.750;2024-02-14T16:28:41;4.25;;;2.47;;
30635;SDS011;17400;52.392;9.750;2024-02-14T16:31:27;5.65;;;2.70;;
30635;SDS011;17400;52.392;9.750;2024-02-14T16:34:13;3.85;;;2.20;;
30635;SDS011;17400;52.392;9.750;2024-02-14T16:37:00;4.25;;;2.47;;
30635;SDS011;17400;52.392;9.750;2024-02-14T16:39:48;3.58;;;2.15;;
30635;SDS011;17400;52.392;9.750;2024-02-14T16:42:36;4.85;;;2.60;;
30635;SDS011;17400;52.392;9.750;2024-02-14T16:45:22;5.80;;;2.00;;
30635;SDS011;17400;52.392;9.750;2024-02-14T16:48:09;4.38;;;2.42;;
30635;SDS011;17400;52.392;9.750;2024-02-14T16:50:56;5.82;;;4.57;;